sensor_id;sensor_type;location;lat;lon;timestamp;P1;durP1;ratioP1;P2;durP2;ratioP2
73015;SDS011;61893;50.074;14.440;2023-11-19T00:00:25;14.87;;;7.40;;
73015;SDS011;61893;50.074;14.440;2023-11-19T00:03:11;12.47;;;6.33;;
73015;SDS011;61893;50.074;14.440;2023-11-19T00:05:39;15.80;;;7.20;;
73015;SDS011;61893;50.074;14.440;2023-11-19T00:08:07;11.20;;;5.90;;
73015;SDS011;61893;50.074;14.440;2023-11-19T00:10:34;11.33;;;6.70;;
73015;SDS011;61893;50.074;14.440;2023-11-19T00:12:59;11.30;;;5.90;;
73015;SDS011;61893;50.074;14.440;2023-11-19T00:15:25;11.27;;;6.87;;
73015;SDS011;61893;50.074;14.440;2023-11-19T00:17:51;12.50;;;6.57;;
73015;SDS011;61893;50.074;14.440;2023-11-19T00:20:32;11.50;;;6.43;;
73015;SDS011;61893;50.074;14.440;2023-11-19T00:22:58;11.17;;;6.53;;
73015;SDS011;61893;50.074;14.440;2023-11-19T00:25:24;10.97;;;6.00;;
73015;SDS011;61893;50.074;14.440;2023-11-19T00:27:50;10.30;;;6.27;;
73015;SDS011;61893;50.074;14.440;2023-11-19T00:30:21;12.80;;;6.37;;
73015;SDS011;61893;50.074;14.440;2023-11-19T00:32:50;11.70;;;6.93;;
73015;SDS011;61893;50.074;14.440;2023-11-19T00:35:16;13.00;;;7.03;;
73015;SDS011;61893;50.074;14.440;2023-11-19T00:37:41;13.13;;;7.27;;
73015;SDS011;61893;50.074;14.440;2023-11-19T00:40:11;14.73;;;6.80;;
73015;SDS011;61893;50.074;14.440;2023-11-19T00:42:45;13.33;;;8.03;;
73015;SDS011;61893;50.074;14.440;2023-11-19T00:45:11;13.43;;;7.63;;
73015;SDS011;61893;50.074;14.440;2023-11-19T00:47:38;13.20;;;7.23;;
73015;SDS011;61893;50.074;14.440;2023-11-19T00:50:04;13.43;;;7.97;;
73015;SDS011;61893;50.074;14.440;2023-11-19T00:52:50;13.10;;;7.33;;
73015;SDS011;61893;50.074;14.440;2023-11-19T00:55:16;10.83;;;6.70;;
73015;SDS011;61893;50.074;14.440;2023-11-19T00:57:42;14.77;;;6.77;;
73015;SDS011;61893;50.074;14.440;2023-11-19T01:00:08;13.53;;;6.90;;
73015;SDS011;61893;50.074;14.440;2023-11-19T01:02:44;10.93;;;6.80;;
73015;SDS011;61893;50.074;14.440;2023-11-19T01:05:39;12.20;;;6.30;;
73015;SDS011;61893;50.074;14.440;2023-11-19T01:08:15;15.73;;;7.93;;
73015;SDS011;61893;50.074;14.440;2023-11-19T01:11:19;13.60;;;6.57;;
73015;SDS011;61893;50.074;14.440;2023-11-19T01:13:47;11.47;;;6.80;;
73015;SDS011;61893;50.074;14.440;2023-11-19T01:16:16;9.73;;;5.83;;
73015;SDS011;61893;50.074;14.440;2023-11-19T01:18:47;12.57;;;6.83;;
73015;SDS011;61893;50.074;14.440;2023-11-19T01:21:14;10.53;;;6.10;;
73015;SDS011;61893;50.074;14.440;2023-11-19T01:23:42;13.27;;;6.30;;
73015;SDS011;61893;50.074;14.440;2023-11-19T01:26:13;12.40;;;6.53;;
73015;SDS011;61893;50.074;14.440;2023-11-19T01:28:54;10.80;;;6.13;;
73015;SDS011;61893;50.074;14.440;2023-11-19T01:31:20;9.33;;;5.90;;
73015;SDS011;61893;50.074;14.440;2023-11-19T01:33:46;14.00;;;6.77;;
73015;SDS011;61893;50.074;14.440;2023-11-19T01:36:18;13.87;;;6.97;;
73015;SDS011;61893;50.074;14.440;2023-11-19T01:38:49;8.53;;;5.03;;
73015;SDS011;61893;50.074;14.440;2023-11-19T01:41:48;10.80;;;5.93;;
73015;SDS011;61893;50.074;14.440;2023-11-19T01:44:14;12.60;;;6.83;;
73015;SDS011;61893;50.074;14.440;2023-11-19T01:46:43;12.13;;;6.80;;
73015;SDS011;61893;50.074;14.440;2023-11-19T01:49:13;13.40;;;6.80;;
73015;SDS011;61893;50.074;14.440;2023-11-19T01:51:40;13.57;;;6.90;;
73015;SDS011;61893;50.074;14.440;2023-11-19T01:54:07;8.43;;;5.13;;
73015;SDS011;61893;50.074;14.440;2023-11-19T01:56:36;10.33;;;5.80;;
73015;SDS011;61893;50.074;14.440;2023-11-19T01:59:11;13.10;;;6.57;;
73015;SDS011;61893;50.074;14.440;2023-11-19T02:01:52;11.17;;;5.57;;
73015;SDS011;61893;50.074;14.440;2023-11-19T02:04:21;12.07;;;6.70;;
73015;SDS011;61893;50.074;14.440;2023-11-19T02:06:50;10.57;;;5.50;;
73015;SDS011;61893;50.074;14.440;2023-11-19T02:09:28;12.63;;;6.73;;
73015;SDS011;61893;50.074;14.440;2023-11-19T02:12:18;9.77;;;6.27;;
73015;SDS011;61893;50.074;14.440;2023-11-19T02:14:57;14.33;;;7.10;;
73015;SDS011;61893;50.074;14.440;2023-11-19T02:17:32;8.67;;;5.93;;
73015;SDS011;61893;50.074;14.440;2023-11-19T02:20:03;10.70;;;6.10;;
73015;SDS011;61893;50.074;14.440;2023-11-19T02:22:34;12.50;;;6.43;;
73015;SDS011;61893;50.074;14.440;2023-11-19T02:25:05;12.40;;;7.07;;
73015;SDS011;61893;50.074;14.440;2023-11-19T02:30:27;13.23;;;6.87;;
73015;SDS011;61893;50.074;14.440;2023-11-19T02:32:54;12.57;;;6.70;;
73015;SDS011;61893;50.074;14.440;2023-11-19T02:35:24;13.90;;;7.37;;
73015;SDS011;61893;50.074;14.440;2023-11-19T02:37:51;12.70;;;7.17;;
73015;SDS011;61893;50.074;14.440;2023-11-19T02:41:15;12.83;;;7.23;;
73015;SDS011;61893;50.074;14.440;2023-11-19T02:43:41;13.17;;;6.90;;
73015;SDS011;61893;50.074;14.440;2023-11-19T02:46:06;12.87;;;6.50;;
73015;SDS011;61893;50.074;14.440;2023-11-19T02:48:33;14.73;;;7.20;;
73015;SDS011;61893;50.074;14.440;2023-11-19T02:51:05;12.27;;;6.70;;
73015;SDS011;61893;50.074;14.440;2023-11-19T02:53:44;12.77;;;7.37;;
73015;SDS011;61893;50.074;14.440;2023-11-19T02:56:13;12.37;;;7.53;;
73015;SDS011;61893;50.074;14.440;2023-11-19T02:58:45;13.10;;;6.93;;
73015;SDS011;61893;50.074;14.440;2023-11-19T03:01:12;13.67;;;7.50;;
73015;SDS011;61893;50.074;14.440;2023-11-19T03:03:50;15.90;;;6.93;;
73015;SDS011;61893;50.074;14.440;2023-11-19T03:06:27;13.53;;;6.97;;
73015;SDS011;61893;50.074;14.440;2023-11-19T03:08:56;14.43;;;7.57;;
73015;SDS011;61893;50.074;14.440;2023-11-19T03:11:26;14.87;;;7.47;;
73015;SDS011;61893;50.074;14.440;2023-11-19T03:14:08;12.37;;;7.30;;
73015;SDS011;61893;50.074;14.440;2023-11-19T03:16:51;12.27;;;6.90;;
73015;SDS011;61893;50.074;14.440;2023-11-19T03:19:31;10.47;;;6.20;;
73015;SDS011;61893;50.074;14.440;2023-11-19T03:21:57;11.60;;;6.77;;
73015;SDS011;61893;50.074;14.440;2023-11-19T03:24:40;11.90;;;6.77;;
73015;SDS011;61893;50.074;14.440;2023-11-19T03:27:17;12.00;;;5.90;;
73015;SDS011;61893;50.074;14.440;2023-11-19T03:30:00;11.93;;;6.67;;
73015;SDS011;61893;50.074;14.440;2023-11-19T03:32:27;11.03;;;6.07;;
73015;SDS011;61893;50.074;14.440;2023-11-19T03:34:53;12.10;;;6.73;;
73015;SDS011;61893;50.074;14.440;2023-11-19T03:37:20;11.60;;;6.43;;
73015;SDS011;61893;50.074;14.440;2023-11-19T03:39:46;12.10;;;6.77;;
73015;SDS011;61893;50.074;14.440;2023-11-19T03:42:11;12.33;;;6.73;;
73015;SDS011;61893;50.074;14.440;2023-11-19T03:44:38;14.63;;;7.13;;
73015;SDS011;61893;50.074;14.440;2023-11-19T03:47:04;10.63;;;5.97;;
73015;SDS011;61893;50.074;14.440;2023-11-19T03:49:30;10.03;;;5.83;;
73015;SDS011;61893;50.074;14.440;2023-11-19T03:52:02;11.97;;;6.50;;
73015;SDS011;61893;50.074;14.440;2023-11-19T03:54:30;12.03;;;7.13;;
73015;SDS011;61893;50.074;14.440;2023-11-19T03:56:56;10.40;;;6.20;;
73015;SDS011;61893;50.074;14.440;2023-11-19T03:59:26;11.27;;;6.00;;
73015;SDS011;61893;50.074;14.440;2023-11-19T04:01:51;13.83;;;5.87;;
73015;SDS011;61893;50.074;14.440;2023-11-19T04:04:28;10.90;;;6.23;;
73015;SDS011;61893;50.074;14.440;2023-11-19T04:07:00;12.00;;;6.17;;
73015;SDS011;61893;50.074;14.440;2023-11-19T04:09:38;10.00;;;5.90;;
73015;SDS011;61893;50.074;14.440;2023-11-19T04:12:04;10.27;;;6.07;;
73015;SDS011;61893;50.074;14.440;2023-11-19T04:14:48;12.95;;;6.63;;
73015;SDS011;61893;50.074;14.440;2023-11-19T04:17:14;11.40;;;5.87;;
73015;SDS011;61893;50.074;14.440;2023-11-19T04:19:42;10.50;;;6.03;;
73015;SDS011;61893;50.074;14.440;2023-11-19T04:22:28;10.17;;;5.63;;
73015;SDS011;61893;50.074;14.440;2023-11-19T04:24:54;10.10;;;5.73;;
73015;SDS011;61893;50.074;14.440;2023-11-19T04:27:27;9.63;;;5.73;;
73015;SDS011;61893;50.074;14.440;2023-11-19T04:30:00;11.10;;;6.00;;
73015;SDS011;61893;50.074;14.440;2023-11-19T04:32:27;9.50;;;5.73;;
73015;SDS011;61893;50.074;14.440;2023-11-19T04:35:08;10.83;;;5.60;;
73015;SDS011;61893;50.074;14.440;2023-11-19T04:37:36;9.97;;;5.13;;
73015;SDS011;61893;50.074;14.440;2023-11-19T04:40:19;11.53;;;6.23;;
73015;SDS011;61893;50.074;14.440;2023-11-19T04:42:47;10.43;;;5.90;;
73015;SDS011;61893;50.074;14.440;2023-11-19T04:45:28;11.37;;;6.50;;
73015;SDS011;61893;50.074;14.440;2023-11-19T04:47:54;9.33;;;5.37;;
73015;SDS011;61893;50.074;14.440;2023-11-19T04:50:34;9.57;;;5.93;;
73015;SDS011;61893;50.074;14.440;2023-11-19T04:53:24;8.27;;;4.80;;
73015;SDS011;61893;50.074;14.440;2023-11-19T04:55:53;13.67;;;6.47;;
73015;SDS011;61893;50.074;14.440;2023-11-19T04:58:21;11.13;;;6.23;;
73015;SDS011;61893;50.074;14.440;2023-11-19T05:01:12;9.20;;;5.47;;
73015;SDS011;61893;50.074;14.440;2023-11-19T05:03:43;10.53;;;5.87;;
73015;SDS011;61893;50.074;14.440;2023-11-19T05:06:12;11.00;;;6.57;;
73015;SDS011;61893;50.074;14.440;2023-11-19T05:08:41;15.70;;;5.90;;
73015;SDS011;61893;50.074;14.440;2023-11-19T05:11:09;9.00;;;5.73;;
73015;SDS011;61893;50.074;14.440;2023-11-19T05:13:37;11.13;;;6.07;;
73015;SDS011;61893;50.074;14.440;2023-11-19T05:16:03;10.20;;;5.77;;
73015;SDS011;61893;50.074;14.440;2023-11-19T05:18:29;8.87;;;5.43;;
73015;SDS011;61893;50.074;14.440;2023-11-19T05:20:55;9.07;;;5.37;;
73015;SDS011;61893;50.074;14.440;2023-11-19T05:23:24;9.33;;;5.60;;
73015;SDS011;61893;50.074;14.440;2023-11-19T05:25:57;8.87;;;5.60;;
73015;SDS011;61893;50.074;14.440;2023-11-19T05:28:26;10.60;;;5.93;;
73015;SDS011;61893;50.074;14.440;2023-11-19T05:30:58;9.23;;;5.27;;
73015;SDS011;61893;50.074;14.440;2023-11-19T05:33:29;11.07;;;6.13;;
73015;SDS011;61893;50.074;14.440;2023-11-19T05:35:55;9.90;;;5.53;;
73015;SDS011;61893;50.074;14.440;2023-11-19T05:38:22;8.80;;;5.67;;
73015;SDS011;61893;50.074;14.440;2023-11-19T05:40:48;10.53;;;5.63;;
73015;SDS011;61893;50.074;14.440;2023-11-19T05:43:16;10.93;;;6.00;;
73015;SDS011;61893;50.074;14.440;2023-11-19T05:46:03;10.80;;;6.10;;
73015;SDS011;61893;50.074;14.440;2023-11-19T05:48:32;9.43;;;5.83;;
73015;SDS011;61893;50.074;14.440;2023-11-19T05:50:58;12.43;;;5.67;;
73015;SDS011;61893;50.074;14.440;2023-11-19T05:53:25;10.53;;;5.53;;
73015;SDS011;61893;50.074;14.440;2023-11-19T05:55:55;12.73;;;5.90;;
73015;SDS011;61893;50.074;14.440;2023-11-19T05:58:27;9.40;;;5.60;;
73015;SDS011;61893;50.074;14.440;2023-11-19T06:01:09;10.83;;;6.00;;
73015;SDS011;61893;50.074;14.440;2023-11-19T06:03:35;11.47;;;6.10;;
73015;SDS011;61893;50.074;14.440;2023-11-19T06:06:09;11.63;;;6.28;;
73015;SDS011;61893;50.074;14.440;2023-11-19T06:08:35;10.10;;;5.97;;
73015;SDS011;61893;50.074;14.440;2023-11-19T06:11:02;15.63;;;6.17;;
73015;SDS011;61893;50.074;14.440;2023-11-19T06:13:43;9.87;;;5.63;;
73015;SDS011;61893;50.074;14.440;2023-11-19T06:16:24;12.33;;;6.13;;
73015;SDS011;61893;50.074;14.440;2023-11-19T06:18:51;11.03;;;6.47;;
73015;SDS011;61893;50.074;14.440;2023-11-19T06:21:27;12.13;;;6.80;;
73015;SDS011;61893;50.074;14.440;2023-11-19T06:24:08;11.00;;;5.60;;
73015;SDS011;61893;50.074;14.440;2023-11-19T06:26:34;9.77;;;5.23;;
73015;SDS011;61893;50.074;14.440;2023-11-19T06:29:04;7.57;;;5.27;;
73015;SDS011;61893;50.074;14.440;2023-11-19T06:32:01;9.07;;;5.43;;
73015;SDS011;61893;50.074;14.440;2023-11-19T06:34:38;9.27;;;5.33;;
73015;SDS011;61893;50.074;14.440;2023-11-19T06:37:04;9.13;;;5.10;;
73015;SDS011;61893;50.074;14.440;2023-11-19T06:40:07;8.57;;;4.67;;
73015;SDS011;61893;50.074;14.440;2023-11-19T06:42:41;8.35;;;5.38;;
73015;SDS011;61893;50.074;14.440;2023-11-19T06:45:07;8.20;;;4.70;;
73015;SDS011;61893;50.074;14.440;2023-11-19T06:47:33;9.47;;;5.50;;
73015;SDS011;61893;50.074;14.440;2023-11-19T06:50:18;8.17;;;4.50;;
73015;SDS011;61893;50.074;14.440;2023-11-19T06:53:05;7.37;;;4.43;;
73015;SDS011;61893;50.074;14.440;2023-11-19T06:55:35;9.27;;;4.63;;
73015;SDS011;61893;50.074;14.440;2023-11-19T06:58:06;6.27;;;3.87;;
73015;SDS011;61893;50.074;14.440;2023-11-19T07:00:34;7.70;;;4.50;;
73015;SDS011;61893;50.074;14.440;2023-11-19T07:03:03;9.80;;;5.13;;
73015;SDS011;61893;50.074;14.440;2023-11-19T07:06:03;7.83;;;4.63;;
73015;SDS011;61893;50.074;14.440;2023-11-19T07:08:55;7.37;;;4.97;;
73015;SDS011;61893;50.074;14.440;2023-11-19T07:11:26;9.03;;;4.90;;
73015;SDS011;61893;50.074;14.440;2023-11-19T07:14:15;8.53;;;4.67;;
73015;SDS011;61893;50.074;14.440;2023-11-19T07:16:44;7.77;;;4.70;;
73015;SDS011;61893;50.074;14.440;2023-11-19T07:19:49;5.97;;;3.90;;
73015;SDS011;61893;50.074;14.440;2023-11-19T07:23:13;6.20;;;4.07;;
73015;SDS011;61893;50.074;14.440;2023-11-19T07:26:43;6.77;;;4.70;;
73015;SDS011;61893;50.074;14.440;2023-11-19T07:29:35;6.93;;;3.93;;
73015;SDS011;61893;50.074;14.440;2023-11-19T07:32:28;6.40;;;4.37;;
73015;SDS011;61893;50.074;14.440;2023-11-19T07:34:58;9.37;;;4.80;;
73015;SDS011;61893;50.074;14.440;2023-11-19T07:37:28;7.53;;;4.50;;
73015;SDS011;61893;50.074;14.440;2023-11-19T07:40:14;7.33;;;4.67;;
73015;SDS011;61893;50.074;14.440;2023-11-19T07:42:46;6.90;;;4.63;;
73015;SDS011;61893;50.074;14.440;2023-11-19T07:45:18;8.57;;;5.67;;
73015;SDS011;61893;50.074;14.440;2023-11-19T07:47:44;7.70;;;4.83;;
73015;SDS011;61893;50.074;14.440;2023-11-19T07:50:13;6.30;;;4.33;;
73015;SDS011;61893;50.074;14.440;2023-11-19T07:52:42;7.77;;;4.73;;
73015;SDS011;61893;50.074;14.440;2023-11-19T07:55:08;8.60;;;5.40;;
73015;SDS011;61893;50.074;14.440;2023-11-19T07:57:35;7.93;;;4.83;;
73015;SDS011;61893;50.074;14.440;2023-11-19T08:00:00;7.87;;;5.20;;
73015;SDS011;61893;50.074;14.440;2023-11-19T08:02:38;8.20;;;4.77;;
73015;SDS011;61893;50.074;14.440;2023-11-19T08:05:04;8.37;;;5.10;;
73015;SDS011;61893;50.074;14.440;2023-11-19T08:08:31;7.60;;;4.77;;
73015;SDS011;61893;50.074;14.440;2023-11-19T08:12:24;7.63;;;4.90;;
73015;SDS011;61893;50.074;14.440;2023-11-19T08:15:59;8.10;;;5.30;;
73015;SDS011;61893;50.074;14.440;2023-11-19T08:18:31;8.67;;;4.87;;
73015;SDS011;61893;50.074;14.440;2023-11-19T08:21:19;7.60;;;5.13;;
73015;SDS011;61893;50.074;14.440;2023-11-19T08:24:03;7.78;;;4.88;;
73015;SDS011;61893;50.074;14.440;2023-11-19T08:26:39;8.00;;;4.93;;
73015;SDS011;61893;50.074;14.440;2023-11-19T08:29:05;8.83;;;5.20;;
73015;SDS011;61893;50.074;14.440;2023-11-19T08:35:18;7.57;;;4.63;;
73015;SDS011;61893;50.074;14.440;2023-11-19T08:38:47;7.73;;;5.17;;
73015;SDS011;61893;50.074;14.440;2023-11-19T08:42:24;7.32;;;4.90;;
73015;SDS011;61893;50.074;14.440;2023-11-19T08:45:13;8.70;;;4.73;;
73015;SDS011;61893;50.074;14.440;2023-11-19T08:47:39;7.37;;;4.80;;
73015;SDS011;61893;50.074;14.440;2023-11-19T08:50:13;9.27;;;5.47;;
73015;SDS011;61893;50.074;14.440;2023-11-19T08:53:25;7.87;;;4.80;;
73015;SDS011;61893;50.074;14.440;2023-11-19T08:56:53;9.43;;;5.27;;
73015;SDS011;61893;50.074;14.440;2023-11-19T08:59:45;8.27;;;5.30;;
73015;SDS011;61893;50.074;14.440;2023-11-19T09:02:14;8.10;;;5.13;;
73015;SDS011;61893;50.074;14.440;2023-11-19T09:05:21;8.27;;;4.77;;
73015;SDS011;61893;50.074;14.440;2023-11-19T09:08:18;6.47;;;4.60;;
73015;SDS011;61893;50.074;14.440;2023-11-19T09:11:24;7.90;;;5.37;;
73015;SDS011;61893;50.074;14.440;2023-11-19T09:14:43;7.97;;;5.13;;
73015;SDS011;61893;50.074;14.440;2023-11-19T09:18:45;8.60;;;5.23;;
73015;SDS011;61893;50.074;14.440;2023-11-19T09:25:44;8.27;;;6.00;;
73015;SDS011;61893;50.074;14.440;2023-11-19T09:29:16;8.00;;;4.93;;
73015;SDS011;61893;50.074;14.440;2023-11-19T09:32:07;7.37;;;4.77;;
73015;SDS011;61893;50.074;14.440;2023-11-19T09:34:44;8.73;;;5.30;;
73015;SDS011;61893;50.074;14.440;2023-11-19T09:37:11;8.30;;;5.10;;
73015;SDS011;61893;50.074;14.440;2023-11-19T09:40:22;7.23;;;4.97;;
73015;SDS011;61893;50.074;14.440;2023-11-19T09:43:29;6.23;;;4.60;;
73015;SDS011;61893;50.074;14.440;2023-11-19T09:46:04;6.97;;;4.73;;
73015;SDS011;61893;50.074;14.440;2023-11-19T09:52:01;8.13;;;5.90;;
73015;SDS011;61893;50.074;14.440;2023-11-19T09:54:33;9.67;;;5.83;;
73015;SDS011;61893;50.074;14.440;2023-11-19T09:57:04;8.77;;;5.70;;
73015;SDS011;61893;50.074;14.440;2023-11-19T09:59:33;7.43;;;5.03;;
73015;SDS011;61893;50.074;14.440;2023-11-19T10:02:00;8.27;;;5.23;;
73015;SDS011;61893;50.074;14.440;2023-11-19T10:05:16;7.73;;;4.50;;
73015;SDS011;61893;50.074;14.440;2023-11-19T10:08:47;7.27;;;4.20;;
73015;SDS011;61893;50.074;14.440;2023-11-19T10:14:23;6.30;;;4.30;;
73015;SDS011;61893;50.074;14.440;2023-11-19T10:17:28;6.43;;;4.07;;
73015;SDS011;61893;50.074;14.440;2023-11-19T10:20:24;5.60;;;3.65;;
73015;SDS011;61893;50.074;14.440;2023-11-19T10:23:11;4.93;;;3.67;;
73015;SDS011;61893;50.074;14.440;2023-11-19T10:25:45;6.65;;;3.45;;
73015;SDS011;61893;50.074;14.440;2023-11-19T10:28:16;4.60;;;3.28;;
73015;SDS011;61893;50.074;14.440;2023-11-19T10:30:43;5.85;;;3.15;;
73015;SDS011;61893;50.074;14.440;2023-11-19T10:33:15;4.35;;;2.70;;
73015;SDS011;61893;50.074;14.440;2023-11-19T10:35:52;3.13;;;2.50;;
73015;SDS011;61893;50.074;14.440;2023-11-19T10:38:19;3.78;;;2.40;;
73015;SDS011;61893;50.074;14.440;2023-11-19T10:40:48;4.30;;;2.20;;
73015;SDS011;61893;50.074;14.440;2023-11-19T10:43:20;3.47;;;2.17;;
73015;SDS011;61893;50.074;14.440;2023-11-19T10:45:50;4.28;;;2.20;;
73015;SDS011;61893;50.074;14.440;2023-11-19T10:48:17;3.30;;;2.08;;
73015;SDS011;61893;50.074;14.440;2023-11-19T10:50:44;3.80;;;2.58;;
73015;SDS011;61893;50.074;14.440;2023-11-19T10:53:50;3.67;;;2.10;;
73015;SDS011;61893;50.074;14.440;2023-11-19T10:56:58;4.53;;;2.65;;
73015;SDS011;61893;50.074;14.440;2023-11-19T10:59:30;3.80;;;2.45;;
73015;SDS011;61893;50.074;14.440;2023-11-19T11:02:00;3.72;;;2.45;;
73015;SDS011;61893;50.074;14.440;2023-11-19T11:04:31;2.50;;;1.30;;
73015;SDS011;61893;50.074;14.440;2023-11-19T11:07:12;1.60;;;0.93;;
73015;SDS011;61893;50.074;14.440;2023-11-19T11:10:01;2.22;;;1.10;;
73015;SDS011;61893;50.074;14.440;2023-11-19T11:12:29;1.17;;;0.93;;
73015;SDS011;61893;50.074;14.440;2023-11-19T11:15:01;2.92;;;0.63;;
73015;SDS011;61893;50.074;14.440;2023-11-19T11:17:39;1.25;;;0.75;;
73015;SDS011;61893;50.074;14.440;2023-11-19T11:20:35;1.00;;;0.80;;
73015;SDS011;61893;50.074;14.440;2023-11-19T11:26:23;1.40;;;0.90;;
73015;SDS011;61893;50.074;14.440;2023-11-19T11:29:02;0.63;;;0.60;;
73015;SDS011;61893;50.074;14.440;2023-11-19T11:34:36;1.13;;;0.73;;
73015;SDS011;61893;50.074;14.440;2023-11-19T11:37:25;0.85;;;0.70;;
73015;SDS011;61893;50.074;14.440;2023-11-19T11:40:00;2.05;;;0.60;;
73015;SDS011;61893;50.074;14.440;2023-11-19T11:42:32;0.82;;;0.60;;
73015;SDS011;61893;50.074;14.440;2023-11-19T11:50:22;2.50;;;0.60;;
73015;SDS011;61893;50.074;14.440;2023-11-19T11:56:09;1.10;;;0.82;;
73015;SDS011;61893;50.074;14.440;2023-11-19T11:58:19;1.73;;;0.90;;
73015;SDS011;61893;50.074;14.440;2023-11-19T12:00:46;2.72;;;1.05;;
73015;SDS011;61893;50.074;14.440;2023-11-19T12:03:58;2.92;;;1.45;;
73015;SDS011;61893;50.074;14.440;2023-11-19T12:13:47;2.42;;;1.00;;
73015;SDS011;61893;50.074;14.440;2023-11-19T12:16:36;2.17;;;0.88;;
73015;SDS011;61893;50.074;14.440;2023-11-19T12:19:53;1.23;;;0.80;;
73015;SDS011;61893;50.074;14.440;2023-11-19T12:23:12;2.72;;;1.00;;
73015;SDS011;61893;50.074;14.440;2023-11-19T12:30:33;2.03;;;0.90;;
73015;SDS011;61893;50.074;14.440;2023-11-19T12:45:48;3.58;;;1.48;;
73015;SDS011;61893;50.074;14.440;2023-11-19T12:48:29;2.72;;;1.00;;
73015;SDS011;61893;50.074;14.440;2023-11-19T12:51:36;2.10;;;1.23;;
73015;SDS011;61893;50.074;14.440;2023-11-19T12:55:26;1.65;;;1.10;;
73015;SDS011;61893;50.074;14.440;2023-11-19T12:58:52;1.20;;;0.90;;
73015;SDS011;61893;50.074;14.440;2023-11-19T13:06:52;3.33;;;1.20;;
73015;SDS011;61893;50.074;14.440;2023-11-19T13:10:02;2.22;;;1.08;;
73015;SDS011;61893;50.074;14.440;2023-11-19T13:13:01;3.35;;;1.30;;
73015;SDS011;61893;50.074;14.440;2023-11-19T13:16:15;1.98;;;1.20;;
73015;SDS011;61893;50.074;14.440;2023-11-19T13:19:37;3.90;;;1.20;;
73015;SDS011;61893;50.074;14.440;2023-11-19T13:27:41;2.70;;;1.20;;
73015;SDS011;61893;50.074;14.440;2023-11-19T13:30:29;3.10;;;1.00;;
73015;SDS011;61893;50.074;14.440;2023-11-19T13:33:10;1.80;;;1.10;;
73015;SDS011;61893;50.074;14.440;2023-11-19T13:35:48;5.13;;;1.10;;
73015;SDS011;61893;50.074;14.440;2023-11-19T13:38:34;3.58;;;1.17;;
73015;SDS011;61893;50.074;14.440;2023-11-19T13:45:19;3.67;;;1.50;;
73015;SDS011;61893;50.074;14.440;2023-11-19T13:48:50;2.13;;;1.40;;
73015;SDS011;61893;50.074;14.440;2023-11-19T13:52:41;1.88;;;1.00;;
73015;SDS011;61893;50.074;14.440;2023-11-19T13:55:49;1.75;;;1.05;;
73015;SDS011;61893;50.074;14.440;2023-11-19T13:58:30;2.88;;;1.23;;
73015;SDS011;61893;50.074;14.440;2023-11-19T14:01:36;1.60;;;1.20;;
73015;SDS011;61893;50.074;14.440;2023-11-19T14:05:16;2.42;;;1.20;;
73015;SDS011;61893;50.074;14.440;2023-11-19T14:09:14;1.90;;;1.25;;
73015;SDS011;61893;50.074;14.440;2023-11-19T14:12:44;2.08;;;1.40;;
73015;SDS011;61893;50.074;14.440;2023-11-19T14:15:49;3.92;;;1.25;;
73015;SDS011;61893;50.074;14.440;2023-11-19T14:18:46;3.78;;;1.23;;
73015;SDS011;61893;50.074;14.440;2023-11-19T14:22:31;1.52;;;1.05;;
73015;SDS011;61893;50.074;14.440;2023-11-19T14:26:07;2.35;;;1.15;;
73015;SDS011;61893;50.074;14.440;2023-11-19T14:29:43;2.20;;;1.25;;
73015;SDS011;61893;50.074;14.440;2023-11-19T14:33:33;1.75;;;1.08;;
73015;SDS011;61893;50.074;14.440;2023-11-19T14:36:30;2.35;;;1.20;;
73015;SDS011;61893;50.074;14.440;2023-11-19T14:39:43;4.57;;;1.23;;
73015;SDS011;61893;50.074;14.440;2023-11-19T14:43:27;2.45;;;1.50;;
73015;SDS011;61893;50.074;14.440;2023-11-19T14:47:07;1.80;;;1.10;;
73015;SDS011;61893;50.074;14.440;2023-11-19T14:54:47;4.72;;;1.42;;
73015;SDS011;61893;50.074;14.440;2023-11-19T15:02:00;4.65;;;1.75;;
73015;SDS011;61893;50.074;14.440;2023-11-19T15:05:26;4.10;;;1.80;;
73015;SDS011;61893;50.074;14.440;2023-11-19T15:09:12;3.45;;;1.60;;
73015;SDS011;61893;50.074;14.440;2023-11-19T15:11:57;2.50;;;1.52;;
73015;SDS011;61893;50.074;14.440;2023-11-19T15:15:12;5.75;;;1.75;;
73015;SDS011;61893;50.074;14.440;2023-11-19T15:18:13;4.60;;;2.00;;
73015;SDS011;61893;50.074;14.440;2023-11-19T15:21:17;5.72;;;1.83;;
73015;SDS011;61893;50.074;14.440;2023-11-19T15:25:02;4.22;;;2.00;;
73015;SDS011;61893;50.074;14.440;2023-11-19T15:28:09;4.30;;;2.20;;
73015;SDS011;61893;50.074;14.440;2023-11-19T15:35:00;7.38;;;2.03;;
73015;SDS011;61893;50.074;14.440;2023-11-19T15:37:53;3.90;;;1.90;;
73015;SDS011;61893;50.074;14.440;2023-11-19T15:41:43;7.60;;;2.20;;
73015;SDS011;61893;50.074;14.440;2023-11-19T15:45:07;7.65;;;3.38;;
73015;SDS011;61893;50.074;14.440;2023-11-19T15:47:58;9.50;;;3.42;;
73015;SDS011;61893;50.074;14.440;2023-11-19T15:52:13;5.85;;;2.65;;
73015;SDS011;61893;50.074;14.440;2023-11-19T15:59:20;4.13;;;2.00;;
73015;SDS011;61893;50.074;14.440;2023-11-19T16:02:27;4.78;;;2.47;;
73015;SDS011;61893;50.074;14.440;2023-11-19T16:05:59;4.05;;;2.17;;
73015;SDS011;61893;50.074;14.440;2023-11-19T16:09:30;6.43;;;2.90;;
73015;SDS011;61893;50.074;14.440;2023-11-19T16:12:10;5.28;;;3.20;;
73015;SDS011;61893;50.074;14.440;2023-11-19T16:14:42;14.75;;;4.85;;
73015;SDS011;61893;50.074;14.440;2023-11-19T16:17:08;17.30;;;4.93;;
73015;SDS011;61893;50.074;14.440;2023-11-19T16:20:11;7.22;;;4.07;;
73015;SDS011;61893;50.074;14.440;2023-11-19T16:22:39;7.78;;;4.45;;
73015;SDS011;61893;50.074;14.440;2023-11-19T16:25:08;6.30;;;3.10;;
73015;SDS011;61893;50.074;14.440;2023-11-19T16:27:35;5.35;;;2.78;;
73015;SDS011;61893;50.074;14.440;2023-11-19T16:30:21;4.68;;;2.78;;
73015;SDS011;61893;50.074;14.440;2023-11-19T16:33:01;5.22;;;2.92;;
73015;SDS011;61893;50.074;14.440;2023-11-19T16:35:48;7.45;;;2.97;;
73015;SDS011;61893;50.074;14.440;2023-11-19T16:38:30;12.07;;;4.50;;
73015;SDS011;61893;50.074;14.440;2023-11-19T16:41:06;7.40;;;3.55;;
73015;SDS011;61893;50.074;14.440;2023-11-19T16:43:44;11.95;;;4.93;;
73015;SDS011;61893;50.074;14.440;2023-11-19T16:46:39;21.45;;;10.77;;
73015;SDS011;61893;50.074;14.440;2023-11-19T16:49:05;7.85;;;3.78;;
73015;SDS011;61893;50.074;14.440;2023-11-19T16:51:31;6.82;;;3.65;;
73015;SDS011;61893;50.074;14.440;2023-11-19T16:53:57;8.83;;;4.07;;
73015;SDS011;61893;50.074;14.440;2023-11-19T16:56:27;8.10;;;3.70;;
73015;SDS011;61893;50.074;14.440;2023-11-19T16:59:28;9.97;;;4.10;;
73015;SDS011;61893;50.074;14.440;2023-11-19T17:02:09;7.85;;;4.07;;
73015;SDS011;61893;50.074;14.440;2023-11-19T17:04:44;7.15;;;3.92;;
73015;SDS011;61893;50.074;14.440;2023-11-19T17:07:30;8.90;;;4.30;;
73015;SDS011;61893;50.074;14.440;2023-11-19T17:10:01;8.13;;;4.57;;
73015;SDS011;61893;50.074;14.440;2023-11-19T17:12:30;5.93;;;3.80;;
73015;SDS011;61893;50.074;14.440;2023-11-19T17:14:56;7.67;;;4.37;;
73015;SDS011;61893;50.074;14.440;2023-11-19T17:17:55;8.33;;;4.17;;
73015;SDS011;61893;50.074;14.440;2023-11-19T17:20:37;12.00;;;5.40;;
73015;SDS011;61893;50.074;14.440;2023-11-19T17:23:09;8.23;;;4.20;;
73015;SDS011;61893;50.074;14.440;2023-11-19T17:25:35;8.47;;;5.17;;
73015;SDS011;61893;50.074;14.440;2023-11-19T17:28:01;9.02;;;4.50;;
73015;SDS011;61893;50.074;14.440;2023-11-19T17:30:32;8.88;;;4.75;;